Time;durP1;ratioP1;P1;durP2;ratioP2;P2;SDS_P1;SDS_P2;PMS_P1;PMS_P2;Temp;Humidity;BMP_temperature;BMP_pressure;BME280_temperature;BME280_humidity;BME280_pressure;Samples;Min_cycle;Max_cycle;Signal;HPM_P1;HPM_P2
2022/05/23 00:02:16;;;;;;;4.23;2.23;;;;;17.30;100374.00;;;;5013560;28;20825;-67
2022/05/23 00:05:04;;;;;;;2.47;2.13;;;;;17.30;100371.00;;;;5023566;28;20241;-69
2022/05/23 00:07:52;;;;;;;3.90;2.37;;;;;17.40;100374.00;;;;5027108;28;20298;-68
2022/05/23 00:10:38;;;;;;;5.30;2.23;;;;;17.30;100367.00;;;;5026395;28;20746;-68
2022/05/23 00:13:24;;;;;;;3.10;2.00;;;;;17.30;100364.00;;;;5020995;28;20237;-68
2022/05/23 00:16:15;;;;;;;3.83;2.30;;;;;17.30;100353.00;;;;5021311;28;20236;-67
2022/05/23 00:19:01;;;;;;;3.50;2.20;;;;;17.30;100352.00;;;;5026854;28;20228;-68
2022/05/23 00:21:49;;;;;;;6.90;2.50;;;;;17.30;100360.00;;;;5026516;28;20240;-68
2022/05/23 00:24:36;;;;;;;4.70;2.40;;;;;17.30;100348.00;;;;5026963;28;20316;-67
2022/05/23 00:27:23;;;;;;;4.73;2.10;;;;;17.30;100344.00;;;;5027118;28;20221;-68
2022/05/23 00:30:12;;;;;;;7.03;2.53;;;;;17.30;100336.00;;;;5018605;28;20227;-68
2022/05/23 00:36:03;;;;;;;4.00;2.60;;;;;17.30;100326.00;;;;5026316;28;20236;-67
2022/05/23 00:38:53;;;;;;;8.47;3.20;;;;;17.20;100316.00;;;;5026519;28;20277;-67
2022/05/23 00:44:45;;;;;;;5.07;2.70;;;;;17.10;100317.00;;;;5023091;28;20360;-68
2022/05/23 00:47:33;;;;;;;3.83;2.40;;;;;17.00;100311.00;;;;5022019;28;20288;-68
2022/05/23 00:50:19;;;;;;;3.10;2.27;;;;;17.10;100313.00;;;;5020414;28;20233;-68
2022/05/23 00:53:08;;;;;;;5.20;2.77;;;;;17.20;100291.00;;;;5025491;28;20237;-68
2022/05/23 00:55:56;;;;;;;5.37;2.70;;;;;17.10;100282.00;;;;5026115;28;20233;-68
2022/05/23 00:58:46;;;;;;;4.37;2.70;;;;;17.10;100288.00;;;;5026626;28;20318;-69
2022/05/23 01:01:36;;;;;;;5.37;2.60;;;;;17.00;100279.00;;;;5021559;28;20243;-68
2022/05/23 01:04:22;;;;;;;3.63;2.63;;;;;17.00;100270.00;;;;5019848;28;20270;-67
2022/05/23 01:07:10;;;;;;;4.67;3.00;;;;;17.00;100267.00;;;;5025797;28;20249;-70
2022/05/23 01:09:56;;;;;;;4.70;3.10;;;;;17.00;100265.00;;;;5025940;28;20256;-68
2022/05/23 01:12:44;;;;;;;3.83;2.53;;;;;17.00;100259.00;;;;5026346;28;20292;-68
2022/05/23 01:15:32;;;;;;;6.57;3.30;;;;;17.00;100272.00;;;;5026715;28;20238;-68
2022/05/23 01:18:19;;;;;;;6.57;3.20;;;;;17.00;100251.00;;;;5019024;28;20236;-67
2022/05/23 01:21:10;;;;;;;4.40;2.97;;;;;17.00;100260.00;;;;5025880;28;20257;-68
2022/05/23 01:24:03;;;;;;;4.60;3.30;;;;;16.90;100244.00;;;;5025149;28;20244;-69
2022/05/23 01:26:53;;;;;;;2.83;2.53;;;;;17.00;100253.00;;;;5026234;28;20233;-69
2022/05/23 01:29:43;;;;;;;4.70;3.00;;;;;16.80;100253.00;;;;5026152;28;20266;-69
2022/05/23 01:32:29;;;;;;;5.17;2.93;;;;;16.90;100249.00;;;;5020808;28;20258;-69
2022/05/23 01:35:16;;;;;;;6.20;3.30;;;;;16.80;100249.00;;;;5018790;28;20236;-69
2022/05/23 01:38:03;;;;;;;4.27;3.10;;;;;16.90;100250.00;;;;5016039;28;20244;-69
2022/05/23 01:40:49;;;;;;;5.33;3.10;;;;;16.80;100255.00;;;;5016002;28;20229;-69
2022/05/23 01:43:37;;;;;;;5.20;2.97;;;;;16.80;100247.00;;;;5017088;28;20244;-69
2022/05/23 01:46:23;;;;;;;4.73;2.90;;;;;16.70;100247.00;;;;5025590;28;20266;-69
2022/05/23 01:49:09;;;;;;;5.33;3.20;;;;;16.70;100234.00;;;;5025537;28;20232;-66
2022/05/23 01:51:55;;;;;;;4.97;3.10;;;;;16.70;100232.00;;;;5018893;28;20681;-69
2022/05/23 01:54:42;;;;;;;5.90;3.20;;;;;16.70;100224.00;;;;5017457;28;20228;-69
2022/05/23 01:57:31;;;;;;;7.77;3.20;;;;;16.70;100236.00;;;;5019749;28;20289;-69
2022/05/23 02:03:23;;;;;;;6.07;3.23;;;;;16.70;100218.00;;;;4994348;28;20333;-68
2022/05/23 02:06:10;;;;;;;7.17;3.10;;;;;16.70;100221.00;;;;4998128;28;20235;-68
2022/05/23 02:08:55;;;;;;;7.83;3.63;;;;;16.70;100211.00;;;;5000624;28;20232;-69
2022/05/23 02:11:42;;;;;;;5.57;3.53;;;;;16.80;100207.00;;;;5025169;28;20398;-67
2022/05/23 02:14:28;;;;;;;5.30;3.80;;;;;16.80;100208.00;;;;5025215;28;20235;-69
2022/05/23 02:17:17;;;;;;;4.67;3.30;;;;;16.80;100209.00;;;;5017454;28;20911;-68
2022/05/23 02:20:04;;;;;;;6.40;3.10;;;;;16.70;100211.00;;;;5025276;28;20234;-68
2022/05/23 02:22:50;;;;;;;6.37;3.50;;;;;16.80;100205.00;;;;5025122;28;20268;-69
2022/05/23 02:25:37;;;;;;;4.53;3.30;;;;;16.70;100200.00;;;;5017558;28;20370;-69
2022/05/23 02:28:23;;;;;;;5.57;3.23;;;;;16.70;100199.00;;;;5025363;28;20231;-70
2022/05/23 02:31:09;;;;;;;6.40;4.20;;;;;16.60;100192.00;;;;5026549;28;20253;-70
2022/05/23 02:33:57;;;;;;;5.53;3.33;;;;;16.60;100176.00;;;;5027739;28;20233;-66
2022/05/23 02:36:44;;;;;;;5.90;3.90;;;;;16.70;100164.00;;;;5025786;28;20333;-67
2022/05/23 02:39:30;;;;;;;4.87;3.40;;;;;16.60;100185.00;;;;5028696;28;20231;-68
2022/05/23 02:42:16;;;;;;;3.67;3.17;;;;;16.70;100182.00;;;;5021869;28;20226;-68
2022/05/23 02:45:03;;;;;;;5.83;3.70;;;;;16.60;100183.00;;;;5028167;28;20240;-68
2022/05/23 02:47:51;;;;;;;7.83;4.03;;;;;16.60;100171.00;;;;5028589;28;20243;-68
2022/05/23 02:50:38;;;;;;;5.83;3.70;;;;;16.50;100166.00;;;;5029130;28;20234;-68
2022/05/23 02:53:24;;;;;;;8.27;3.53;;;;;16.50;100154.00;;;;5024888;28;20232;-68
2022/05/23 02:56:11;;;;;;;5.23;4.00;;;;;16.50;100164.00;;;;5021051;28;20726;-68
2022/05/23 02:58:57;;;;;;;7.73;4.03;;;;;16.50;100162.00;;;;5028246;28;20938;-68
2022/05/23 03:04:48;;;;;;;4.60;3.67;;;;;16.60;100155.00;;;;5017564;28;20240;-68
2022/05/23 03:07:36;;;;;;;5.43;3.77;;;;;16.60;100161.00;;;;5007254;28;20740;-68
2022/05/23 03:10:22;;;;;;;7.00;3.57;;;;;16.60;100157.00;;;;5002657;28;20617;-69
2022/05/23 03:13:09;;;;;;;6.23;3.57;;;;;16.70;100150.00;;;;5021013;28;20232;-68
2022/05/23 03:15:56;;;;;;;6.33;4.00;;;;;16.60;100145.00;;;;5008228;28;20364;-68
2022/05/23 03:18:42;;;;;;;7.17;3.70;;;;;16.70;100150.00;;;;5008869;28;20230;-69
2022/05/23 03:27:34;;;;;;;5.73;3.67;;;;;16.50;100139.00;;;;5003388;28;20262;-68
2022/05/23 03:30:20;;;;;;;6.13;3.80;;;;;16.40;100133.00;;;;5001669;28;20310;-68
2022/05/23 03:33:08;;;;;;;6.10;3.80;;;;;16.50;100118.00;;;;5026202;28;20227;-70
2022/05/23 03:35:54;;;;;;;5.60;4.10;;;;;16.50;100110.00;;;;5008007;28;20237;-68
2022/05/23 03:38:40;;;;;;;6.07;3.30;;;;;16.60;100104.00;;;;5008692;28;20238;-68
2022/05/23 03:41:28;;;;;;;8.87;3.90;;;;;16.50;100104.00;;;;5001964;28;20231;-68
2022/05/23 03:44:14;;;;;;;6.43;3.63;;;;;16.40;100100.00;;;;5002979;28;20359;-68
2022/05/23 03:47:00;;;;;;;7.60;4.17;;;;;16.40;100102.00;;;;5007759;28;20306;-68
2022/05/23 03:49:46;;;;;;;5.07;3.87;;;;;16.30;100097.00;;;;5008288;28;20279;-68
2022/05/23 03:52:33;;;;;;;5.30;3.70;;;;;16.30;100091.00;;;;5026101;28;20232;-68
2022/05/23 03:55:19;;;;;;;4.87;3.57;;;;;16.40;100084.00;;;;5021357;28;20248;-69
2022/05/23 03:58:07;;;;;;;5.47;4.20;;;;;16.30;100086.00;;;;5025938;28;20816;-68
2022/05/23 04:00:53;;;;;;;7.73;4.30;;;;;16.30;100081.00;;;;5025003;28;20223;-67
2022/05/23 04:03:40;;;;;;;7.73;4.30;;;;;16.40;100081.00;;;;5028014;28;20695;-67
2022/05/23 04:06:27;;;;;;;6.37;3.77;;;;;16.40;100066.00;;;;5021499;28;20231;-68
2022/05/23 04:09:13;;;;;;;5.43;4.00;;;;;16.30;100056.00;;;;5012598;28;20234;-68
2022/05/23 04:12:00;;;;;;;6.73;4.03;;;;;16.20;100068.00;;;;5027052;28;20786;-69
2022/05/23 04:14:48;;;;;;;7.27;4.30;;;;;16.30;100063.00;;;;5027127;28;20226;-69
2022/05/23 04:17:34;;;;;;;4.33;3.50;;;;;16.30;100070.00;;;;5024334;28;20296;-67
2022/05/23 04:20:21;;;;;;;6.83;4.10;;;;;16.40;100074.00;;;;5020612;28;20239;-67
2022/05/23 04:23:08;;;;;;;7.77;4.27;;;;;16.40;100060.00;;;;5026888;28;20873;-68
2022/05/23 04:25:55;;;;;;;5.00;3.90;;;;;16.30;100049.00;;;;5026825;28;20239;-66
2022/05/23 04:28:41;;;;;;;5.67;3.83;;;;;16.30;100019.00;;;;5027595;28;20317;-67
2022/05/23 04:31:29;;;;;;;10.23;4.10;;;;;16.30;100046.00;;;;5028800;28;20719;-68
2022/05/23 04:37:19;;;;;;;6.10;4.33;;;;;16.30;100033.00;;;;5010027;28;20235;-68
2022/05/23 04:40:07;;;;;;;8.87;3.93;;;;;16.30;100030.00;;;;5006237;28;20234;-68
2022/05/23 04:42:55;;;;;;;8.07;3.97;;;;;16.30;100031.00;;;;5006566;28;20234;-70
2022/05/23 04:45:41;;;;;;;8.97;4.60;;;;;16.40;100033.00;;;;5007323;28;20251;-68
2022/05/23 04:51:34;;;;;;;8.33;4.33;;;;;16.40;100023.00;;;;5021957;28;20298;-68
2022/05/23 04:54:20;;;;;;;6.60;4.00;;;;;16.50;100024.00;;;;4998494;28;20269;-67
2022/05/23 04:57:07;;;;;;;5.40;4.00;;;;;16.50;100021.00;;;;5024436;28;20239;-68
2022/05/23 04:59:53;;;;;;;5.87;4.10;;;;;16.40;100010.00;;;;5019781;28;20603;-68
2022/05/23 05:02:39;;;;;;;4.90;4.20;;;;;16.50;100020.00;;;;5026768;28;20369;-68
2022/05/23 05:05:28;;;;;;;5.73;4.20;;;;;16.50;100023.00;;;;5026225;28;20234;-68
2022/05/23 05:08:15;;;;;;;4.43;3.67;;;;;16.60;100015.00;;;;5018583;28;20229;-68
2022/05/23 05:11:03;;;;;;;5.97;3.83;;;;;16.60;100009.00;;;;5025791;28;20306;-68
2022/05/23 05:13:49;;;;;;;4.97;3.73;;;;;16.70;100021.00;;;;5025953;28;20234;-68
2022/05/23 05:16:37;;;;;;;5.03;3.97;;;;;16.70;100011.00;;;;5026342;28;20341;-68
2022/05/23 05:19:23;;;;;;;6.17;4.20;;;;;16.80;99996.00;;;;5014142;28;20230;-68
2022/05/23 05:22:10;;;;;;;5.13;3.73;;;;;16.80;99991.00;;;;5025646;28;20270;-67
2022/05/23 05:24:57;;;;;;;7.87;4.90;;;;;17.00;99988.00;;;;5025532;28;20232;-68
2022/05/23 05:27:43;;;;;;;5.60;3.80;;;;;17.00;99985.00;;;;5012311;28;20240;-68
2022/05/23 05:30:29;;;;;;;8.87;4.73;;;;;17.10;99972.00;;;;5008823;28;20245;-68
2022/05/23 05:33:19;;;;;;;8.00;4.30;;;;;17.20;99975.00;;;;5017674;28;20237;-68
2022/05/23 05:36:10;;;;;;;7.00;4.43;;;;;17.10;99972.00;;;;5012935;28;20845;-68
2022/05/23 05:39:01;;;;;;;7.17;4.37;;;;;17.10;99968.00;;;;5017717;28;20235;-69
2022/05/23 05:41:54;;;;;;;8.73;4.50;;;;;17.20;99962.00;;;;5022328;28;20355;-69
2022/05/23 05:44:45;;;;;;;7.87;4.63;;;;;17.20;99959.00;;;;5025345;28;21009;-68
2022/05/23 05:47:35;;;;;;;7.13;4.17;;;;;17.30;99956.00;;;;5019827;28;20247;-69
2022/05/23 05:50:26;;;;;;;6.63;4.33;;;;;17.20;99936.00;;;;5019220;28;20233;-69
2022/05/23 05:53:16;;;;;;;7.60;4.70;;;;;17.30;99936.00;;;;5023991;28;20235;-69
2022/05/23 05:56:05;;;;;;;5.80;4.57;;;;;17.50;99939.00;;;;5025215;28;20245;-70
2022/05/23 05:58:52;;;;;;;6.50;4.60;;;;;17.70;99945.00;;;;5024182;28;20233;-69
2022/05/23 06:01:40;;;;;;;7.87;4.53;;;;;17.80;99943.00;;;;5026231;28;20301;-69
2022/05/23 06:04:26;;;;;;;5.10;4.00;;;;;17.80;99936.00;;;;5019324;28;20233;-69
2022/05/23 06:13:33;;;;;;;5.43;4.30;;;;;18.10;99929.00;;;;5009587;28;20636;-68
2022/05/23 06:16:20;;;;;;;6.67;4.63;;;;;18.10;99928.00;;;;5020588;28;20244;-70
2022/05/23 06:19:07;;;;;;;6.90;4.50;;;;;18.20;99918.00;;;;5031054;28;20232;-70
2022/05/23 06:21:53;;;;;;;8.27;4.03;;;;;18.30;99918.00;;;;5030770;28;20233;-70
2022/05/23 06:24:40;;;;;;;5.80;3.83;;;;;18.50;99927.00;;;;5033467;28;20310;-70
2022/05/23 06:27:27;;;;;;;6.67;4.60;;;;;18.50;99918.00;;;;5034287;28;20232;-69
2022/05/23 06:30:16;;;;;;;7.80;4.40;;;;;18.70;99910.00;;;;5017683;28;20360;-69
2022/05/23 06:33:04;;;;;;;7.57;4.50;;;;;18.60;99905.00;;;;5025113;28;20367;-70
2022/05/23 06:35:50;;;;;;;9.03;4.67;;;;;18.60;99915.00;;;;5025823;28;20229;-70
2022/05/23 06:38:38;;;;;;;6.77;4.00;;;;;18.70;99899.00;;;;5025227;28;20233;-70
2022/05/23 06:41:24;;;;;;;7.10;4.03;;;;;18.70;99915.00;;;;5018921;28;20272;-68
2022/05/23 06:44:10;;;;;;;9.63;4.80;;;;;18.80;99902.00;;;;5019313;28;20229;-69
2022/05/23 06:46:58;;;;;;;7.47;4.43;;;;;19.00;99898.00;;;;5022152;28;20696;-69
2022/05/23 06:49:45;;;;;;;8.10;3.87;;;;;19.20;99889.00;;;;5025522;28;20237;-69
2022/05/23 06:52:31;;;;;;;5.10;4.27;;;;;19.20;99880.00;;;;5019799;28;20233;-69
2022/05/23 06:55:18;;;;;;;6.70;4.10;;;;;19.30;99886.00;;;;5017624;28;20233;-70
2022/05/23 06:58:04;;;;;;;6.00;3.97;;;;;19.40;99882.00;;;;5024366;28;20240;-69
2022/05/23 07:00:52;;;;;;;5.10;3.90;;;;;19.60;99882.00;;;;5022506;28;20229;-69
2022/05/23 07:03:41;;;;;;;7.00;3.80;;;;;19.40;99875.00;;;;5025024;28;20233;-68
2022/05/23 07:12:35;;;;;;;6.97;4.27;;;;;19.70;99862.00;;;;5019734;28;20230;-69
2022/05/23 07:15:21;;;;;;;5.73;4.57;;;;;19.90;99866.00;;;;5018122;28;20230;-70
2022/05/23 07:18:08;;;;;;;7.73;4.07;;;;;20.10;99862.00;;;;5027586;28;20296;-71
2022/05/23 07:20:55;;;;;;;5.53;3.63;;;;;20.10;99854.00;;;;5025382;28;20316;-69
2022/05/23 07:23:41;;;;;;;6.13;3.60;;;;;20.20;99848.00;;;;5028914;28;20237;-70
2022/05/23 07:26:28;;;;;;;4.97;3.77;;;;;20.20;99842.00;;;;5022012;28;20234;-68
2022/05/23 07:29:14;;;;;;;4.77;3.90;;;;;20.30;99832.00;;;;5020518;28;20240;-69
2022/05/23 07:32:01;;;;;;;6.43;3.77;;;;;20.40;99842.00;;;;5028223;28;20225;-68
2022/05/23 07:34:48;;;;;;;6.53;3.60;;;;;20.60;99837.00;;;;5028179;28;20277;-68
2022/05/23 07:37:35;;;;;;;6.37;4.00;;;;;20.60;99828.00;;;;5025119;28;20713;-68
2022/05/23 07:40:21;;;;;;;9.10;3.70;;;;;20.70;99822.00;;;;5021439;28;20726;-68
2022/05/23 07:43:08;;;;;;;6.93;3.87;;;;;20.80;99812.00;;;;5027239;28;20248;-68
2022/05/23 07:45:54;;;;;;;5.07;3.27;;;;;20.90;99819.00;;;;5030842;28;20238;-69
2022/05/23 07:48:42;;;;;;;5.30;3.40;;;;;20.90;99811.00;;;;5027924;28;20249;-69
2022/05/23 07:51:30;;;;;;;4.60;3.40;;;;;21.10;99818.00;;;;5018696;28;20730;-69
2022/05/23 08:00:32;;;;;;;4.83;3.37;;;;;21.40;99813.00;;;;5009019;28;20232;-69
2022/05/23 08:03:18;;;;;;;5.67;3.77;;;;;21.50;99809.00;;;;5000744;28;20234;-68
2022/05/23 08:06:06;;;;;;;8.17;3.77;;;;;21.80;99803.00;;;;5027291;28;20238;-68
2022/05/23 08:08:52;;;;;;;7.40;3.40;;;;;21.80;99802.00;;;;5000638;28;20246;-68
2022/05/23 08:11:41;;;;;;;5.47;3.20;;;;;22.00;99793.00;;;;5026172;28;20759;-69
2022/05/23 08:14:27;;;;;;;5.53;3.20;;;;;22.00;99788.00;;;;5020864;28;20247;-69
2022/05/23 08:17:14;;;;;;;5.20;3.10;;;;;22.10;99794.00;;;;5019513;28;20283;-69
2022/05/23 08:20:00;;;;;;;5.37;3.10;;;;;22.30;99788.00;;;;5027427;28;20232;-69
2022/05/23 08:22:51;;;;;;;4.17;3.37;;;;;22.60;99785.00;;;;5027367;28;20317;-68
2022/05/23 08:25:37;;;;;;;4.17;3.57;;;;;22.40;99778.00;;;;5016572;28;20254;-69
2022/05/23 08:28:25;;;;;;;4.40;2.97;;;;;22.60;99770.00;;;;5020816;28;21052;-69
2022/05/23 08:31:11;;;;;;;5.93;3.30;;;;;22.80;99770.00;;;;5026992;28;20228;-69
2022/05/23 08:33:57;;;;;;;7.43;3.63;;;;;23.00;99761.00;;;;5025636;28;20250;-69
2022/05/23 08:36:44;;;;;;;6.13;3.63;;;;;22.90;99772.00;;;;5027410;28;20232;-68
2022/05/23 08:39:30;;;;;;;4.87;3.00;;;;;23.10;99756.00;;;;5027507;28;20236;-69
2022/05/23 08:42:28;;;;;;;3.90;3.50;;;;;23.10;99748.00;;;;5027387;28;20299;-69
2022/05/23 08:45:20;;;;;;;4.53;3.40;;;;;23.20;99754.00;;;;5027019;28;20818;-67
2022/05/23 08:48:13;;;;;;;6.40;3.40;;;;;23.60;99752.00;;;;5026562;28;20249;-67
2022/05/23 08:51:06;;;;;;;9.17;3.37;;;;;23.70;99746.00;;;;5026559;28;20595;-69
2022/05/23 08:53:57;;;;;;;5.23;3.20;;;;;23.80;99761.00;;;;5026601;28;20233;-69
2022/05/23 08:56:46;;;;;;;3.47;2.70;;;;;23.80;99754.00;;;;5026775;28;20323;-66
2022/05/23 08:59:39;;;;;;;3.60;2.73;;;;;23.70;99758.00;;;;5014797;28;20242;-69
2022/05/23 09:02:37;;;;;;;4.27;3.07;;;;;23.50;99760.00;;;;5020165;28;20651;-69
2022/05/23 09:05:32;;;;;;;9.93;3.50;;;;;23.50;99749.00;;;;5019728;28;20240;-66
2022/05/23 09:08:48;;;;;;;8.67;3.00;;;;;23.50;99755.00;;;;5015763;28;20287;-67
2022/05/23 09:11:36;;;;;;;4.07;2.70;;;;;23.60;99748.00;;;;5021383;28;20232;-69
2022/05/23 09:14:23;;;;;;;5.20;2.53;;;;;23.70;99740.00;;;;5016688;28;20232;-69
2022/05/23 09:17:16;;;;;;;5.40;2.87;;;;;23.60;99730.00;;;;5018571;28;20246;-69
2022/05/23 09:20:12;;;;;;;19.67;4.63;;;;;24.00;99725.00;;;;5012712;28;20273;-68
2022/05/23 09:23:03;;;;;;;4.80;3.07;;;;;24.20;99721.00;;;;5028919;28;20225;-69
2022/05/23 09:25:51;;;;;;;5.30;3.07;;;;;24.50;99711.00;;;;5024774;28;20674;-67
2022/05/23 09:28:40;;;;;;;4.47;2.40;;;;;24.80;99702.00;;;;5025312;28;20325;-69
2022/05/23 09:31:35;;;;;;;3.10;2.77;;;;;25.00;99703.00;;;;5019147;28;20245;-68
2022/05/23 09:34:30;;;;;;;3.87;2.80;;;;;25.20;99691.00;;;;5018994;28;20781;-67
2022/05/23 09:37:21;;;;;;;6.33;2.80;;;;;25.30;99691.00;;;;5016246;28;20236;-68
2022/05/23 09:40:21;;;;;;;3.13;2.60;;;;;25.50;99678.00;;;;5017911;28;20310;-68
2022/05/23 09:49:31;;;;;;;6.63;2.50;;;;;25.70;99655.00;;;;5006802;28;20245;-69
2022/05/23 09:52:26;;;;;;;6.37;2.70;;;;;26.00;99649.00;;;;4998382;28;20231;-67
2022/05/23 09:55:14;;;;;;;3.50;2.20;;;;;26.10;99651.00;;;;5005236;28;20230;-70
2022/05/23 09:58:03;;;;;;;3.07;2.40;;;;;26.30;99632.00;;;;5025020;28;20281;-69
2022/05/23 10:00:58;;;;;;;2.60;2.10;;;;;26.60;99624.00;;;;5025750;28;20225;-66
2022/05/23 10:03:50;;;;;;;7.13;2.67;;;;;26.20;99644.00;;;;5005166;28;20238;-69
2022/05/23 10:06:40;;;;;;;5.30;2.80;;;;;26.50;99641.00;;;;5018405;28;20252;-69
2022/05/23 10:09:32;;;;;;;3.60;2.23;;;;;26.30;99643.00;;;;5012544;28;20283;-67
2022/05/23 10:12:22;;;;;;;3.83;2.50;;;;;26.40;99637.00;;;;5017932;28;20225;-68
2022/05/23 10:15:18;;;;;;;4.07;2.50;;;;;26.50;99632.00;;;;5024471;28;20233;-68
2022/05/23 10:18:08;;;;;;;3.93;2.23;;;;;26.50;99622.00;;;;5016988;28;20346;-68
2022/05/23 10:20:55;;;;;;;4.17;2.60;;;;;26.50;99619.00;;;;5025535;28;20233;-69
2022/05/23 10:23:41;;;;;;;4.87;2.47;;;;;26.60;99612.00;;;;5025277;28;20283;-68
2022/05/23 10:26:33;;;;;;;8.20;2.50;;;;;26.70;99620.00;;;;5018409;28;20731;-69
2022/05/23 10:29:23;;;;;;;8.23;5.27;;;;;26.70;99619.00;;;;5020043;28;20710;-69
2022/05/23 10:32:12;;;;;;;3.73;2.47;;;;;26.70;99610.00;;;;5024305;28;20233;-69
2022/05/23 10:35:07;;;;;;;4.53;2.43;;;;;27.00;99610.00;;;;5024458;28;20304;-69
2022/05/23 10:37:53;;;;;;;5.43;2.40;;;;;26.60;99610.00;;;;5025253;28;20238;-68
2022/05/23 10:43:59;;;;;;;4.25;2.30;;;;;26.40;99608.00;;;;5020062;28;20628;-68
2022/05/23 10:46:53;;;;;;;3.10;2.28;;;;;26.50;99603.00;;;;5020751;28;20272;-68
2022/05/23 10:50:08;;;;;;;3.00;2.40;;;;;26.30;99598.00;;;;5022363;28;20276;-68
2022/05/23 10:53:07;;;;;;;2.33;2.13;;;;;26.40;99604.00;;;;5027950;28;20809;-68
2022/05/23 10:56:02;;;;;;;4.43;3.70;;;;;26.50;99596.00;;;;5020493;28;20247;-68
2022/05/23 10:58:55;;;;;;;2.92;2.72;;;;;26.60;99595.00;;;;5022519;28;20289;-70
2022/05/23 11:01:55;;;;;;;6.32;2.60;;;;;26.90;99598.00;;;;5024973;28;20729;-67
2022/05/23 11:04:50;;;;;;;3.22;2.33;;;;;27.20;99580.00;;;;5024499;28;20237;-69
2022/05/23 11:07:45;;;;;;;3.05;2.60;;;;;27.50;99579.00;;;;5023446;28;20657;-67
2022/05/23 11:10:43;;;;;;;5.47;2.53;;;;;27.70;99575.00;;;;5023348;28;20245;-67
2022/05/23 11:13:49;;;;;;;3.22;2.28;;;;;28.00;99567.00;;;;5022607;28;20245;-69
2022/05/23 11:16:48;;;;;;;4.20;2.55;;;;;28.10;99552.00;;;;5023200;28;20972;-67
2022/05/23 11:19:46;;;;;;;4.70;2.53;;;;;28.20;99546.00;;;;5025347;28;20838;-69
2022/05/23 11:22:35;;;;;;;4.18;2.42;;;;;28.10;99536.00;;;;5022652;28;20229;-69
2022/05/23 11:25:28;;;;;;;3.00;2.60;;;;;28.00;99532.00;;;;5021428;28;20284;-68
2022/05/23 11:34:41;;;;;;;3.60;2.03;;;;;28.30;99506.00;;;;5010155;28;20238;-68
2022/05/23 11:37:48;;;;;;;6.65;2.70;;;;;28.40;99511.00;;;;5005886;28;20234;-68
2022/05/23 11:41:00;;;;;;;4.88;1.90;;;;;28.40;99496.00;;;;5028332;28;20311;-67
2022/05/23 11:43:47;;;;;;;4.25;2.38;;;;;28.70;99492.00;;;;5024049;28;20284;-68
2022/05/23 11:47:05;;;;;;;2.83;2.00;;;;;28.50;99488.00;;;;5022094;28;20237;-67
2022/05/23 11:50:09;;;;;;;2.90;1.98;;;;;28.40;99497.00;;;;5024717;28;20875;-67
2022/05/23 11:53:06;;;;;;;4.80;1.85;;;;;28.40;99480.00;;;;5011847;28;20353;-68
2022/05/23 11:56:07;;;;;;;4.20;1.98;;;;;28.00;99482.00;;;;5008281;28;20372;-66
2022/05/23 11:58:54;;;;;;;3.35;1.80;;;;;27.80;99474.00;;;;5000949;28;20238;-67
2022/05/23 12:01:40;;;;;;;4.80;1.77;;;;;27.70;99478.00;;;;5026476;28;20797;-67
2022/05/23 12:04:27;;;;;;;2.30;1.77;;;;;27.70;99482.00;;;;5027043;28;20233;-68
2022/05/23 12:08:14;;;;;;;3.67;1.73;;;;;28.20;99468.00;;;;5027210;28;20372;-68
2022/05/23 12:11:02;;;;;;;5.80;1.88;;;;;29.00;99468.00;;;;4949035;28;21845;-67
2022/05/23 12:13:51;;;;;;;3.65;1.67;;;;;29.50;99454.00;;;;5013116;28;20639;-68
2022/05/23 12:16:44;;;;;;;3.28;1.80;;;;;29.50;99446.00;;;;5012462;28;20899;-68
2022/05/23 12:19:50;;;;;;;2.50;1.65;;;;;29.50;99440.00;;;;5015129;28;20229;-67
2022/05/23 12:22:48;;;;;;;3.90;1.92;;;;;29.60;99444.00;;;;5017676;28;20238;-65
2022/05/23 12:25:34;;;;;;;3.65;1.80;;;;;29.70;99431.00;;;;5014620;28;20230;-67
2022/05/23 12:28:21;;;;;;;3.53;1.95;;;;;29.80;99416.00;;;;5022431;28;20275;-68
2022/05/23 12:31:12;;;;;;;3.40;1.88;;;;;29.70;99428.00;;;;5025265;28;20288;-67
2022/05/23 12:34:12;;;;;;;2.65;1.77;;;;;30.00;99426.00;;;;5026642;28;20745;-68
2022/05/23 12:36:58;;;;;;;3.60;1.52;;;;;30.20;99411.00;;;;5027841;28;20393;-67
2022/05/23 12:40:03;;;;;;;4.78;1.90;;;;;30.00;99412.00;;;;5018716;28;20233;-69
2022/05/23 12:43:05;;;;;;;3.05;1.60;;;;;30.00;99409.00;;;;5023319;28;20250;-70
2022/05/23 12:46:09;;;;;;;1.83;1.55;;;;;30.20;99403.00;;;;5015032;28;20279;-74
2022/05/23 12:49:18;;;;;;;3.08;1.67;;;;;30.30;99402.00;;;;5005923;28;20230;-74
2022/05/23 12:52:35;;;;;;;3.38;1.90;;;;;30.40;99395.00;;;;4992377;28;20238;-73
2022/05/23 12:55:36;;;;;;;4.25;1.70;;;;;30.50;99392.00;;;;4992361;28;20641;-73
2022/05/23 12:58:45;;;;;;;4.32;1.42;;;;;30.50;99395.00;;;;4994801;28;20479;-73
2022/05/23 13:01:36;;;;;;;2.95;1.73;;;;;30.50;99376.00;;;;5014910;28;20233;-72
2022/05/23 13:04:26;;;;;;;3.97;1.73;;;;;30.50;99366.00;;;;5019004;28;20308;-73
2022/05/23 13:07:18;;;;;;;2.20;2.00;;;;;30.40;99365.00;;;;5005684;28;20230;-74
2022/05/23 13:10:08;;;;;;;3.35;1.85;;;;;30.30;99361.00;;;;5017404;28;20233;-74
2022/05/23 13:13:02;;;;;;;4.57;2.20;;;;;30.30;99354.00;;;;5023531;28;20241;-74
2022/05/23 13:15:53;;;;;;;2.63;1.60;;;;;30.60;99351.00;;;;4997835;28;20628;-73
2022/05/23 13:24:56;;;;;;;5.00;2.00;;;;;30.60;99356.00;;;;5022677;28;20322;-72
2022/05/23 13:27:50;;;;;;;2.72;1.92;;;;;30.00;99358.00;;;;5021216;28;20230;-73
2022/05/23 13:30:43;;;;;;;5.53;2.05;;;;;29.20;99353.00;;;;5006446;28;20317;-73
2022/05/23 13:33:31;;;;;;;2.92;1.92;;;;;28.60;99349.00;;;;5016353;28;20409;-71
2022/05/23 13:36:17;;;;;;;3.08;1.90;;;;;28.20;99346.00;;;;5017989;28;20238;-72
2022/05/23 13:39:05;;;;;;;3.17;2.10;;;;;27.90;99357.00;;;;5025522;28;20826;-74
2022/05/23 13:41:52;;;;;;;5.55;2.03;;;;;27.60;99356.00;;;;5025769;28;20489;-73
2022/05/23 13:44:38;;;;;;;10.55;2.40;;;;;27.40;99347.00;;;;5018156;28;20229;-72
2022/05/23 13:47:32;;;;;;;2.10;1.90;;;;;27.20;99346.00;;;;5022669;28;20368;-72
2022/05/23 13:50:21;;;;;;;3.80;2.30;;;;;27.10;99350.00;;;;5015797;28;20241;-74
2022/05/23 13:53:13;;;;;;;5.45;2.15;;;;;27.10;99350.00;;;;5018619;28;20238;-72
2022/05/23 13:56:01;;;;;;;4.53;2.20;;;;;27.00;99346.00;;;;5021889;28;20237;-74
2022/05/23 13:58:51;;;;;;;3.42;2.40;;;;;26.80;99350.00;;;;5011660;28;20305;-72
2022/05/23 14:01:42;;;;;;;2.85;2.13;;;;;26.60;99349.00;;;;5017769;28;20234;-72
2022/05/23 14:04:34;;;;;;;4.00;2.40;;;;;26.60;99342.00;;;;5019014;28;20228;-66
2022/05/23 14:07:25;;;;;;;3.40;2.20;;;;;26.60;99337.00;;;;5017635;28;20229;-69
2022/05/23 14:10:18;;;;;;;2.47;2.20;;;;;26.70;99333.00;;;;5024214;28;20276;-68
2022/05/23 14:13:04;;;;;;;2.20;2.00;;;;;26.80;99332.00;;;;5024839;28;20709;-67
2022/05/23 14:15:54;;;;;;;5.13;2.45;;;;;26.60;99313.00;;;;5027333;28;20233;-67
2022/05/23 14:18:40;;;;;;;3.78;2.35;;;;;26.50;99330.00;;;;5020634;28;20333;-68
2022/05/23 14:21:37;;;;;;;5.50;2.45;;;;;26.40;99328.00;;;;5026075;28;20229;-69
2022/05/23 14:24:28;;;;;;;7.07;2.60;;;;;26.30;99326.00;;;;5017982;28;20416;-68
2022/05/23 14:27:26;;;;;;;2.72;2.42;;;;;26.30;99333.00;;;;5030851;28;20333;-69
2022/05/23 14:30:28;;;;;;;5.47;2.60;;;;;26.10;99321.00;;;;5011932;28;20242;-70
2022/05/23 14:33:23;;;;;;;4.63;2.30;;;;;26.00;99320.00;;;;5011833;28;20836;-69
2022/05/23 14:36:20;;;;;;;3.07;2.50;;;;;25.70;99310.00;;;;5003741;28;20234;-71
2022/05/23 14:39:17;;;;;;;3.47;2.67;;;;;25.60;99314.00;;;;5006680;28;20230;-72
2022/05/23 14:42:28;;;;;;;3.58;2.70;;;;;25.30;99306.00;;;;5018180;28;20245;-71
2022/05/23 14:45:24;;;;;;;4.30;2.90;;;;;25.10;99298.00;;;;4996879;28;20706;-72
2022/05/23 14:48:17;;;;;;;7.37;2.80;;;;;24.90;99297.00;;;;5004301;28;20226;-71
2022/05/23 14:51:13;;;;;;;3.87;2.60;;;;;24.70;99295.00;;;;5001380;28;20231;-71
2022/05/23 14:57:10;;;;;;;4.20;3.10;;;;;24.50;99296.00;;;;4999189;28;20230;-72
2022/05/23 15:03:01;;;;;;;6.43;3.20;;;;;24.50;99283.00;;;;5030932;28;20240;-69
2022/05/23 15:05:48;;;;;;;6.53;3.13;;;;;24.60;99273.00;;;;5031742;28;20284;-68
2022/05/23 15:08:35;;;;;;;6.07;3.40;;;;;24.50;99254.00;;;;5020401;28;20253;-69
2022/05/23 15:11:25;;;;;;;5.37;3.20;;;;;24.70;99263.00;;;;5023839;28;20237;-70
2022/05/23 15:14:15;;;;;;;6.90;3.43;;;;;24.90;99262.00;;;;5010986;28;20234;-69
2022/05/23 15:17:01;;;;;;;5.00;3.10;;;;;25.40;99269.00;;;;5028040;28;20937;-70
2022/05/23 15:19:48;;;;;;;7.23;3.20;;;;;25.50;99257.00;;;;5031585;28;20245;-70